Time;durP1;ratioP1;P1;durP2;ratioP2;P2;SDS_P1;SDS_P2;PMS_P1;PMS_P2;Temp;Humidity;BMP_temperature;BMP_pressure;BME280_temperature;BME280_humidity;BME280_pressure;Samples;Min_cycle;Max_cycle;Signal;HPM_P1;HPM_P2
2023/06/07 00:01:50;;;;;;;6.75;4.90;;;;;;;;;;5056073;28;20063;-74
2023/06/07 00:04:16;;;;;;;8.85;6.72;;;;;;;;;;5055610;28;20024;-73
2023/06/07 00:06:43;;;;;;;10.27;6.45;;;;;;;;;;5056622;28;20020;-74
2023/06/07 00:09:10;;;;;;;10.30;6.47;;;;;;;;;;5044403;28;20021;-74
2023/06/07 00:11:36;;;;;;;9.02;5.82;;;;;;;;;;5042613;28;20033;-74
2023/06/07 00:14:03;;;;;;;8.70;5.97;;;;;;;;;;5055904;28;20502;-73
2023/06/07 00:16:29;;;;;;;9.75;6.68;;;;;;;;;;5056072;28;20021;-73
2023/06/07 00:18:57;;;;;;;9.55;6.38;;;;;;;;;;5058280;28;20173;-73
2023/06/07 00:21:23;;;;;;;8.05;5.60;;;;;;;;;;5052186;28;20024;-74
2023/06/07 00:23:49;;;;;;;8.05;6.20;;;;;;;;;;5062951;28;20100;-74
2023/06/07 00:26:16;;;;;;;8.82;5.82;;;;;;;;;;5049699;28;20028;-74
2023/06/07 00:28:42;;;;;;;8.82;6.07;;;;;;;;;;5063102;28;20028;-73
2023/06/07 00:31:08;;;;;;;12.27;7.10;;;;;;;;;;5045443;28;20527;-74
2023/06/07 00:33:34;;;;;;;9.30;6.22;;;;;;;;;;5047023;28;20131;-74
2023/06/07 00:36:00;;;;;;;9.60;6.15;;;;;;;;;;5048651;28;20363;-74
2023/06/07 00:38:26;;;;;;;9.63;6.88;;;;;;;;;;5051778;28;20029;-74
2023/06/07 00:40:52;;;;;;;11.85;10.35;;;;;;;;;;5056486;28;20025;-74
2023/06/07 00:43:18;;;;;;;13.05;10.52;;;;;;;;;;5055207;28;20021;-74
2023/06/07 00:45:44;;;;;;;12.00;9.85;;;;;;;;;;5050781;28;20103;-73
2023/06/07 00:48:11;;;;;;;11.23;8.57;;;;;;;;;;5050272;28;20047;-74
2023/06/07 00:50:37;;;;;;;10.63;7.50;;;;;;;;;;5050849;28;20455;-74
2023/06/07 00:53:03;;;;;;;12.40;7.82;;;;;;;;;;5059851;28;20032;-74
2023/06/07 00:55:30;;;;;;;9.88;7.47;;;;;;;;;;5047011;28;20383;-74
2023/06/07 00:57:57;;;;;;;10.00;6.45;;;;;;;;;;5046334;28;20057;-75
2023/06/07 01:00:23;;;;;;;10.65;6.75;;;;;;;;;;5056100;28;20033;-74
2023/06/07 01:02:49;;;;;;;12.88;6.93;;;;;;;;;;5051592;28;20245;-74
2023/06/07 01:05:20;;;;;;;10.18;7.20;;;;;;;;;;5042375;28;20029;-74
2023/06/07 01:07:46;;;;;;;10.95;7.47;;;;;;;;;;5056895;28;20021;-74
2023/06/07 01:10:13;;;;;;;14.93;8.23;;;;;;;;;;5052638;28;20029;-74
2023/06/07 01:12:43;;;;;;;11.00;7.47;;;;;;;;;;5055604;28;20032;-73
2023/06/07 01:15:10;;;;;;;9.75;7.20;;;;;;;;;;5059679;28;20164;-73
2023/06/07 01:17:37;;;;;;;9.63;7.28;;;;;;;;;;5061834;28;20023;-74
2023/06/07 01:20:04;;;;;;;16.50;8.30;;;;;;;;;;5052911;28;20391;-74
2023/06/07 01:22:32;;;;;;;14.70;8.00;;;;;;;;;;5054844;28;20080;-73
2023/06/07 01:25:00;;;;;;;15.65;7.95;;;;;;;;;;5051851;28;20036;-73
2023/06/07 01:27:27;;;;;;;11.02;7.57;;;;;;;;;;5054631;28;20024;-73
2023/06/07 01:29:54;;;;;;;9.85;7.13;;;;;;;;;;5060070;28;20125;-73
2023/06/07 01:32:20;;;;;;;11.93;7.50;;;;;;;;;;5056756;28;20032;-73
2023/06/07 01:34:47;;;;;;;11.65;7.22;;;;;;;;;;5056182;28;20035;-73
2023/06/07 01:37:13;;;;;;;11.77;7.13;;;;;;;;;;5050541;28;20040;-73
2023/06/07 01:39:40;;;;;;;11.98;7.25;;;;;;;;;;5060337;28;20039;-74
2023/06/07 01:42:08;;;;;;;11.57;7.53;;;;;;;;;;5057683;28;20186;-73
2023/06/07 01:44:35;;;;;;;12.45;7.20;;;;;;;;;;5053999;28;20134;-74
2023/06/07 01:47:01;;;;;;;11.48;7.07;;;;;;;;;;5058212;28;20033;-74
2023/06/07 01:49:27;;;;;;;11.20;7.78;;;;;;;;;;5056991;28;20097;-73
2023/06/07 01:51:53;;;;;;;12.50;7.13;;;;;;;;;;5064155;28;20029;-73
2023/06/07 01:54:19;;;;;;;10.32;6.80;;;;;;;;;;5053356;28;20024;-73
2023/06/07 01:56:55;;;;;;;11.02;7.38;;;;;;;;;;5050740;28;20474;-74
2023/06/07 01:59:21;;;;;;;;;;;;;;;;;;5062938;28;20028;-74
2023/06/07 02:02:01;;;;;;;9.43;7.28;;;;;;;;;;5058337;28;19908;-74
2023/06/07 02:04:29;;;;;;;15.18;7.43;;;;;;;;;;5057384;28;20482;-74
2023/06/07 02:06:59;;;;;;;11.10;7.18;;;;;;;;;;5049039;28;20141;-74
2023/06/07 02:09:26;;;;;;;11.32;7.43;;;;;;;;;;5055601;28;20036;-74
2023/06/07 02:11:53;;;;;;;11.73;6.82;;;;;;;;;;5046296;28;20029;-73
2023/06/07 02:14:20;;;;;;;11.93;7.43;;;;;;;;;;5054092;28;20138;-73
2023/06/07 02:16:47;;;;;;;11.43;7.78;;;;;;;;;;5057063;28;20508;-74
2023/06/07 02:19:16;;;;;;;11.85;7.25;;;;;;;;;;5051434;28;20033;-74
2023/06/07 02:21:42;;;;;;;14.98;8.60;;;;;;;;;;5054252;28;20017;-74
2023/06/07 02:24:08;;;;;;;13.88;7.80;;;;;;;;;;5062387;28;20032;-73
2023/06/07 02:26:35;;;;;;;13.52;7.95;;;;;;;;;;5049799;28;20025;-74
2023/06/07 02:29:02;;;;;;;10.07;6.72;;;;;;;;;;5057105;28;20740;-73
2023/06/07 02:31:28;;;;;;;12.35;7.45;;;;;;;;;;5059236;28;20545;-73
2023/06/07 02:33:54;;;;;;;9.27;6.85;;;;;;;;;;5063191;28;20029;-74
2023/06/07 02:36:32;;;;;;;13.38;7.35;;;;;;;;;;5048505;28;20494;-73
2023/06/07 02:38:58;;;;;;;11.50;7.50;;;;;;;;;;5057666;28;20051;-74
2023/06/07 02:41:25;;;;;;;10.38;7.32;;;;;;;;;;5061709;28;20029;-73
2023/06/07 02:43:51;;;;;;;13.70;8.30;;;;;;;;;;5047166;28;20031;-74
2023/06/07 02:46:17;;;;;;;11.60;7.43;;;;;;;;;;5051474;28;20091;-74
2023/06/07 02:48:43;;;;;;;15.38;8.52;;;;;;;;;;5057536;28;20029;-73
2023/06/07 02:51:11;;;;;;;12.75;7.95;;;;;;;;;;5048625;28;20033;-73
2023/06/07 02:53:37;;;;;;;13.90;8.32;;;;;;;;;;5054101;28;20025;-74
2023/06/07 02:56:03;;;;;;;13.80;8.07;;;;;;;;;;5066032;28;20109;-74
2023/06/07 02:58:29;;;;;;;12.88;7.95;;;;;;;;;;5055581;28;20028;-74
2023/06/07 03:00:56;;;;;;;12.40;7.45;;;;;;;;;;5054829;28;20379;-73
2023/06/07 03:03:23;;;;;;;12.63;7.97;;;;;;;;;;5055285;28;20083;-74
2023/06/07 03:05:49;;;;;;;14.38;8.57;;;;;;;;;;5056243;28;20021;-73
2023/06/07 03:08:16;;;;;;;14.95;7.97;;;;;;;;;;5050035;28;20506;-74
2023/06/07 03:10:42;;;;;;;18.05;9.98;;;;;;;;;;5060037;28;20032;-73
2023/06/07 03:13:08;;;;;;;13.52;8.52;;;;;;;;;;5060499;28;20086;-74
2023/06/07 03:15:35;;;;;;;14.65;8.60;;;;;;;;;;5049607;28;20067;-74
2023/06/07 03:18:03;;;;;;;12.60;8.93;;;;;;;;;;5062520;28;20039;-74
2023/06/07 03:20:33;;;;;;;14.48;8.25;;;;;;;;;;5053912;28;20029;-73
2023/06/07 03:22:59;;;;;;;16.83;9.75;;;;;;;;;;5053949;28;20032;-73
2023/06/07 03:25:25;;;;;;;16.67;10.20;;;;;;;;;;5063153;28;20445;-75
2023/06/07 03:27:51;;;;;;;17.40;10.27;;;;;;;;;;5048394;28;20032;-73
2023/06/07 03:30:17;;;;;;;15.20;9.43;;;;;;;;;;5051290;28;20235;-73
2023/06/07 03:32:43;;;;;;;17.80;10.52;;;;;;;;;;5053226;28;20107;-74
2023/06/07 03:35:10;;;;;;;20.35;10.77;;;;;;;;;;5063602;28;20032;-74
2023/06/07 03:37:36;;;;;;;23.20;12.50;;;;;;;;;;5051692;28;20036;-75
2023/06/07 03:40:03;;;;;;;16.27;10.45;;;;;;;;;;5050369;28;20028;-74
2023/06/07 03:42:29;;;;;;;18.30;11.77;;;;;;;;;;5054003;28;20021;-75
2023/06/07 03:44:55;;;;;;;19.92;13.30;;;;;;;;;;5056883;28;20051;-74
2023/06/07 03:47:21;;;;;;;21.63;11.50;;;;;;;;;;5050958;28;20079;-74
2023/06/07 03:49:47;;;;;;;18.83;11.55;;;;;;;;;;5048755;28;20115;-74
2023/06/07 03:52:13;;;;;;;17.90;11.38;;;;;;;;;;5050810;28;20025;-74
2023/06/07 03:54:39;;;;;;;22.10;10.75;;;;;;;;;;5048594;28;20043;-74
2023/06/07 03:57:06;;;;;;;21.23;12.90;;;;;;;;;;5053452;28;20032;-74
2023/06/07 03:59:33;;;;;;;25.13;13.30;;;;;;;;;;5048677;28;20032;-74
2023/06/07 04:02:00;;;;;;;25.20;13.50;;;;;;;;;;5047843;28;20494;-74
2023/06/07 04:04:27;;;;;;;24.65;14.63;;;;;;;;;;5061724;28;20480;-75
2023/06/07 04:06:54;;;;;;;22.60;13.65;;;;;;;;;;5051197;28;20112;-74
2023/06/07 04:09:20;;;;;;;25.92;14.52;;;;;;;;;;5055201;28;20566;-74
2023/06/07 04:11:47;;;;;;;28.90;14.77;;;;;;;;;;5051145;28;20079;-73
2023/06/07 04:14:13;;;;;;;27.75;14.85;;;;;;;;;;5058877;28;20036;-74
2023/06/07 04:16:39;;;;;;;26.95;14.85;;;;;;;;;;5064506;28;20184;-73
2023/06/07 04:19:05;;;;;;;27.10;15.43;;;;;;;;;;5049857;28;20040;-73
2023/06/07 04:21:32;;;;;;;22.88;13.18;;;;;;;;;;5055089;28;20033;-73
2023/06/07 04:23:58;;;;;;;21.00;13.82;;;;;;;;;;5055902;28;20462;-74
2023/06/07 04:26:25;;;;;;;25.50;15.02;;;;;;;;;;5053190;28;20545;-74
2023/06/07 04:28:56;;;;;;;25.70;14.25;;;;;;;;;;5071912;28;20032;-74
2023/06/07 04:31:29;;;;;;;28.73;14.25;;;;;;;;;;5048145;28;20045;-73
2023/06/07 04:33:57;;;;;;;25.15;15.05;;;;;;;;;;5044412;28;20036;-74
2023/06/07 04:36:25;;;;;;;29.33;15.02;;;;;;;;;;5054123;28;20028;-74
2023/06/07 04:39:01;;;;;;;24.25;13.75;;;;;;;;;;5059389;28;20035;-74
2023/06/07 04:41:32;;;;;;;22.63;14.43;;;;;;;;;;5047664;28;20033;-75
2023/06/07 04:44:00;;;;;;;28.35;15.07;;;;;;;;;;5053967;28;20057;-74
2023/06/07 04:46:27;;;;;;;24.98;14.27;;;;;;;;;;5058743;28;20534;-74
2023/06/07 04:48:53;;;;;;;27.80;16.88;;;;;;;;;;5048209;28;20075;-74
2023/06/07 04:51:20;;;;;;;24.50;14.50;;;;;;;;;;5047432;28;20107;-74
2023/06/07 04:53:49;;;;;;;25.25;14.45;;;;;;;;;;5058788;28;20490;-74
2023/06/07 04:56:15;;;;;;;27.67;15.15;;;;;;;;;;5055299;28;20511;-74
2023/06/07 04:58:41;;;;;;;24.73;13.93;;;;;;;;;;5046803;28;20029;-73
2023/06/07 05:01:11;;;;;;;25.75;15.63;;;;;;;;;;5055844;28;20029;-73
2023/06/07 05:03:40;;;;;;;32.42;15.35;;;;;;;;;;5056275;28;20028;-74
2023/06/07 05:06:06;;;;;;;27.27;15.80;;;;;;;;;;5052889;28;20411;-74
2023/06/07 05:08:32;;;;;;;34.85;16.42;;;;;;;;;;5052444;28;20479;-74
2023/06/07 05:10:58;;;;;;;26.92;16.02;;;;;;;;;;5054435;28;20116;-74
2023/06/07 05:13:24;;;;;;;27.17;15.32;;;;;;;;;;5060804;28;20355;-73
2023/06/07 05:15:50;;;;;;;27.73;15.57;;;;;;;;;;5061044;28;20785;-74
2023/06/07 05:18:20;;;;;;;23.98;15.57;;;;;;;;;;5052567;28;20509;-73
2023/06/07 05:20:49;;;;;;;27.02;15.15;;;;;;;;;;5051495;28;20055;-74
2023/06/07 05:23:16;;;;;;;24.92;15.10;;;;;;;;;;5063079;28;20020;-74
2023/06/07 05:25:46;;;;;;;23.40;14.45;;;;;;;;;;5063454;28;20139;-73
2023/06/07 05:28:12;;;;;;;22.60;14.65;;;;;;;;;;5053511;28;20111;-73
2023/06/07 05:30:39;;;;;;;21.35;13.65;;;;;;;;;;5054595;28;20048;-73
2023/06/07 05:33:08;;;;;;;22.00;13.15;;;;;;;;;;5057706;28;20131;-74
2023/06/07 05:35:34;;;;;;;18.67;11.30;;;;;;;;;;5054811;28;20060;-74
2023/06/07 05:38:01;;;;;;;16.60;10.95;;;;;;;;;;5058680;28;20048;-74
2023/06/07 05:40:27;;;;;;;18.63;10.43;;;;;;;;;;5057839;28;20560;-74
2023/06/07 05:42:56;;;;;;;15.55;10.13;;;;;;;;;;5057707;28;20435;-74
2023/06/07 05:45:22;;;;;;;15.63;9.15;;;;;;;;;;5062127;28;20502;-74
2023/06/07 05:47:48;;;;;;;16.20;9.35;;;;;;;;;;5052894;28;20134;-74
2023/06/07 05:50:14;;;;;;;13.88;9.50;;;;;;;;;;5063003;28;20036;-74
2023/06/07 05:52:41;;;;;;;11.68;8.88;;;;;;;;;;5057387;28;20426;-74
2023/06/07 05:55:07;;;;;;;16.55;9.18;;;;;;;;;;5061167;28;20033;-73
2023/06/07 05:57:33;;;;;;;13.55;8.73;;;;;;;;;;5056143;28;20056;-74
2023/06/07 05:59:59;;;;;;;11.45;7.88;;;;;;;;;;5056761;28;20060;-74
2023/06/07 06:02:26;;;;;;;15.75;8.63;;;;;;;;;;5054194;28;20155;-74
2023/06/07 06:04:56;;;;;;;14.75;8.20;;;;;;;;;;5062225;28;20032;-73
2023/06/07 06:07:22;;;;;;;12.88;8.07;;;;;;;;;;5061119;28;20024;-74
2023/06/07 06:09:48;;;;;;;19.95;9.02;;;;;;;;;;5059351;28;20111;-75
2023/06/07 06:12:14;;;;;;;11.05;7.47;;;;;;;;;;5052679;28;20076;-74
2023/06/07 06:14:40;;;;;;;13.65;7.70;;;;;;;;;;5060649;28;20025;-74
2023/06/07 06:17:07;;;;;;;13.70;8.27;;;;;;;;;;5061954;28;20429;-74
2023/06/07 06:19:33;;;;;;;10.80;8.10;;;;;;;;;;5062273;28;20020;-75
2023/06/07 06:21:59;;;;;;;10.70;7.93;;;;;;;;;;5055292;28;20526;-74
2023/06/07 06:24:25;;;;;;;11.85;7.00;;;;;;;;;;5052308;28;20396;-74
2023/06/07 06:26:51;;;;;;;10.95;7.47;;;;;;;;;;5052241;28;20033;-74
2023/06/07 06:29:17;;;;;;;10.38;7.43;;;;;;;;;;5063318;28;20707;-74
2023/06/07 06:31:43;;;;;;;12.75;6.97;;;;;;;;;;5058255;28;20033;-74
2023/06/07 06:34:10;;;;;;;8.63;6.57;;;;;;;;;;5049854;28;20056;-74
2023/06/07 06:36:36;;;;;;;11.52;7.65;;;;;;;;;;5056133;28;20516;-75
2023/06/07 06:39:03;;;;;;;9.73;6.57;;;;;;;;;;5051342;28;20028;-74
2023/06/07 06:41:30;;;;;;;12.10;7.80;;;;;;;;;;5057476;28;20421;-74
2023/06/07 06:43:56;;;;;;;10.60;6.80;;;;;;;;;;5057967;28;20021;-72
2023/06/07 06:46:22;;;;;;;11.00;7.00;;;;;;;;;;5064350;28;20033;-73
2023/06/07 06:48:48;;;;;;;10.55;7.55;;;;;;;;;;5065927;28;20028;-74
2023/06/07 06:51:15;;;;;;;12.20;7.13;;;;;;;;;;5053533;28;20029;-74
2023/06/07 06:53:41;;;;;;;11.88;6.72;;;;;;;;;;5054737;28;20040;-73
2023/06/07 06:56:07;;;;;;;12.77;7.22;;;;;;;;;;5050535;28;20035;-74
2023/06/07 06:58:34;;;;;;;14.75;7.65;;;;;;;;;;5058145;28;20127;-72
2023/06/07 07:01:05;;;;;;;9.70;7.00;;;;;;;;;;5049612;28;20032;-74
2023/06/07 07:03:31;;;;;;;10.75;6.70;;;;;;;;;;5056315;28;20035;-75
2023/06/07 07:05:57;;;;;;;10.10;7.15;;;;;;;;;;5055005;28;20029;-74
2023/06/07 07:08:24;;;;;;;9.77;7.13;;;;;;;;;;5061828;28;20085;-74
2023/06/07 07:10:50;;;;;;;10.63;7.22;;;;;;;;;;5057716;28;20457;-74
2023/06/07 07:13:16;;;;;;;9.82;6.97;;;;;;;;;;5053446;28;20520;-74
2023/06/07 07:15:42;;;;;;;9.98;7.65;;;;;;;;;;5063501;28;20382;-75
2023/06/07 07:18:08;;;;;;;10.90;7.00;;;;;;;;;;5058202;28;20068;-75
2023/06/07 07:20:35;;;;;;;10.45;7.70;;;;;;;;;;5058037;28;20114;-74
2023/06/07 07:23:02;;;;;;;12.02;7.50;;;;;;;;;;5058770;28;20071;-74
2023/06/07 07:25:29;;;;;;;9.60;6.82;;;;;;;;;;5056841;28;20028;-74
2023/06/07 07:27:55;;;;;;;7.90;6.60;;;;;;;;;;5055550;28;20024;-74
2023/06/07 07:30:21;;;;;;;7.50;5.68;;;;;;;;;;5052455;28;20060;-75
2023/06/07 07:32:47;;;;;;;10.52;7.43;;;;;;;;;;5057994;28;20033;-75
2023/06/07 07:35:13;;;;;;;10.98;7.30;;;;;;;;;;5055617;28;20029;-74
2023/06/07 07:37:39;;;;;;;9.15;6.45;;;;;;;;;;5060206;28;20039;-74
2023/06/07 07:40:08;;;;;;;10.35;7.00;;;;;;;;;;5057076;28;20505;-74
2023/06/07 07:42:34;;;;;;;8.88;6.03;;;;;;;;;;5057107;28;20067;-74
2023/06/07 07:45:01;;;;;;;11.20;6.95;;;;;;;;;;5053088;28;20540;-73
2023/06/07 07:47:27;;;;;;;10.70;6.60;;;;;;;;;;5059030;28;20017;-75
2023/06/07 07:49:55;;;;;;;10.23;6.38;;;;;;;;;;5053174;28;20033;-74
2023/06/07 07:52:21;;;;;;;11.27;7.45;;;;;;;;;;5061559;28;20027;-74
2023/06/07 07:54:47;;;;;;;8.05;6.13;;;;;;;;;;5056560;28;20039;-74
2023/06/07 07:57:13;;;;;;;11.15;7.93;;;;;;;;;;5056014;28;20375;-74
2023/06/07 07:59:39;;;;;;;14.93;6.95;;;;;;;;;;5055266;28;20025;-74
2023/06/07 08:02:05;;;;;;;8.52;6.20;;;;;;;;;;5059585;28;20029;-73
2023/06/07 08:04:31;;;;;;;6.43;5.72;;;;;;;;;;5057961;28;20111;-74
2023/06/07 08:06:57;;;;;;;9.50;6.75;;;;;;;;;;5055551;28;20028;-76
2023/06/07 08:09:24;;;;;;;9.80;6.22;;;;;;;;;;5056982;28;20029;-74
2023/06/07 08:11:50;;;;;;;7.43;5.88;;;;;;;;;;5054312;28;20028;-75
2023/06/07 08:14:16;;;;;;;9.60;7.25;;;;;;;;;;5055819;28;20383;-74
2023/06/07 08:16:42;;;;;;;9.80;5.63;;;;;;;;;;5058623;28;20040;-74
2023/06/07 08:19:08;;;;;;;9.52;6.10;;;;;;;;;;5053748;28;20155;-74
2023/06/07 08:21:35;;;;;;;8.80;5.38;;;;;;;;;;5059119;28;20029;-74
2023/06/07 08:24:06;;;;;;;7.22;5.72;;;;;;;;;;5058171;28;20017;-74
2023/06/07 08:26:32;;;;;;;6.68;4.95;;;;;;;;;;5060150;28;20040;-74
2023/06/07 08:28:58;;;;;;;6.60;5.38;;;;;;;;;;5056097;28;20030;-74
2023/06/07 08:31:27;;;;;;;7.07;5.00;;;;;;;;;;5056113;28;20064;-74
2023/06/07 08:33:53;;;;;;;7.55;5.80;;;;;;;;;;5063495;28;20374;-73
2023/06/07 08:36:19;;;;;;;6.38;4.95;;;;;;;;;;5058986;28;20032;-74
2023/06/07 08:38:46;;;;;;;6.70;5.28;;;;;;;;;;5066691;28;20510;-73
2023/06/07 08:41:12;;;;;;;7.38;5.72;;;;;;;;;;5056047;28;20547;-73
2023/06/07 08:43:40;;;;;;;6.78;4.95;;;;;;;;;;5064583;28;20075;-73
2023/06/07 08:46:07;;;;;;;6.80;5.55;;;;;;;;;;5060646;28;20033;-74
2023/06/07 08:48:33;;;;;;;8.32;6.28;;;;;;;;;;5059052;28;20035;-74
2023/06/07 08:51:04;;;;;;;7.82;5.28;;;;;;;;;;5053992;28;20378;-74
2023/06/07 08:53:35;;;;;;;8.90;5.05;;;;;;;;;;5052540;28;20110;-74
2023/06/07 08:56:01;;;;;;;7.25;5.20;;;;;;;;;;5056868;28;20324;-74
2023/06/07 08:58:28;;;;;;;8.45;5.50;;;;;;;;;;5060288;28;20032;-74
2023/06/07 09:00:54;;;;;;;5.38;4.60;;;;;;;;;;5062610;28;20115;-74
2023/06/07 09:03:20;;;;;;;7.13;5.88;;;;;;;;;;5064817;28;20465;-74
2023/06/07 09:05:47;;;;;;;7.88;6.03;;;;;;;;;;5059131;28;20099;-73
2023/06/07 09:08:13;;;;;;;7.20;5.20;;;;;;;;;;5060910;28;20021;-74
2023/06/07 09:10:41;;;;;;;8.52;5.50;;;;;;;;;;5056091;28;20052;-74
2023/06/07 09:13:07;;;;;;;6.22;4.30;;;;;;;;;;5057652;28;20032;-74
2023/06/07 09:15:33;;;;;;;7.72;5.03;;;;;;;;;;5063710;28;20401;-74
2023/06/07 09:18:01;;;;;;;5.57;4.18;;;;;;;;;;5063004;28;20085;-74
2023/06/07 09:20:28;;;;;;;5.18;3.47;;;;;;;;;;5052620;28;20467;-74
2023/06/07 09:23:03;;;;;;;6.45;4.20;;;;;;;;;;5054832;28;20111;-74
2023/06/07 09:25:30;;;;;;;5.28;3.65;;;;;;;;;;5055954;28;20029;-74
2023/06/07 09:27:56;;;;;;;4.05;3.60;;;;;;;;;;5063175;28;20534;-74
2023/06/07 09:30:23;;;;;;;5.85;3.50;;;;;;;;;;5050392;28;20056;-74
2023/06/07 09:32:49;;;;;;;7.70;3.80;;;;;;;;;;5055295;28;20706;-74
2023/06/07 09:35:16;;;;;;;4.70;3.58;;;;;;;;;;5058333;28;20390;-74
2023/06/07 09:37:43;;;;;;;6.78;4.57;;;;;;;;;;5052029;28;20050;-74
2023/06/07 09:40:09;;;;;;;4.68;3.90;;;;;;;;;;5064297;28;20151;-74
2023/06/07 09:42:35;;;;;;;5.68;3.85;;;;;;;;;;5058490;28;20505;-73
2023/06/07 09:45:18;;;;;;;5.18;3.50;;;;;;;;;;5057873;28;20766;-73
2023/06/07 09:47:44;;;;;;;4.65;4.07;;;;;;;;;;5061513;28;20033;-74
2023/06/07 09:50:11;;;;;;;5.78;3.47;;;;;;;;;;5061949;28;20079;-75
2023/06/07 09:52:37;;;;;;;7.28;4.05;;;;;;;;;;5059848;28;20063;-74
2023/06/07 09:55:06;;;;;;;5.80;3.85;;;;;;;;;;5058305;28;20032;-74
2023/06/07 09:57:37;;;;;;;6.60;4.00;;;;;;;;;;5065533;28;20052;-73
2023/06/07 10:00:10;;;;;;;7.35;4.18;;;;;;;;;;5059702;28;20032;-74
2023/06/07 10:02:37;;;;;;;8.20;4.32;;;;;;;;;;5058606;28;20108;-74
2023/06/07 10:05:03;;;;;;;5.88;4.43;;;;;;;;;;5061965;28;20088;-74
2023/06/07 10:07:52;;;;;;;7.60;3.80;;;;;;;;;;5058656;28;20086;-75
2023/06/07 10:10:22;;;;;;;5.57;4.53;;;;;;;;;;5053262;28;20415;-74
2023/06/07 10:12:50;;;;;;;5.10;4.20;;;;;;;;;;5064690;28;20039;-73
2023/06/07 10:15:21;;;;;;;5.55;3.75;;;;;;;;;;5065430;28;20047;-74
2023/06/07 10:17:48;;;;;;;6.10;3.53;;;;;;;;;;5058620;28;20115;-75
2023/06/07 10:20:38;;;;;;;4.90;4.03;;;;;;;;;;5058088;28;20039;-74
2023/06/07 10:23:05;;;;;;;5.15;3.50;;;;;;;;;;5047746;28;20723;-74
2023/06/07 10:25:33;;;;;;;7.65;4.15;;;;;;;;;;5058366;28;20443;-74
2023/06/07 10:28:09;;;;;;;5.57;4.00;;;;;;;;;;5064916;28;20054;-74
2023/06/07 10:30:36;;;;;;;4.50;4.10;;;;;;;;;;5062875;28;20601;-74
2023/06/07 10:33:04;;;;;;;6.13;4.25;;;;;;;;;;5058721;28;20136;-74
2023/06/07 10:35:31;;;;;;;3.97;3.58;;;;;;;;;;5063930;28;20153;-73
2023/06/07 10:37:57;;;;;;;7.53;3.75;;;;;;;;;;5060928;28;20032;-73
2023/06/07 10:40:25;;;;;;;5.85;3.60;;;;;;;;;;5054978;28;20574;-74
2023/06/07 10:42:52;;;;;;;4.40;3.50;;;;;;;;;;5075791;28;20398;-75
2023/06/07 10:45:19;;;;;;;6.50;4.18;;;;;;;;;;5060211;28;20028;-73
2023/06/07 10:47:48;;;;;;;5.80;3.80;;;;;;;;;;5055141;28;20518;-74
2023/06/07 10:50:38;;;;;;;6.38;3.92;;;;;;;;;;5060606;28;20086;-74
2023/06/07 10:53:04;;;;;;;6.65;3.53;;;;;;;;;;5046040;28;20039;-73
2023/06/07 10:55:31;;;;;;;4.60;3.42;;;;;;;;;;5063014;28;20410;-74
2023/06/07 10:58:01;;;;;;;4.95;3.40;;;;;;;;;;5058285;28;20436;-74
2023/06/07 11:00:30;;;;;;;6.90;3.70;;;;;;;;;;5066433;28;20029;-74
2023/06/07 11:03:19;;;;;;;4.97;3.47;;;;;;;;;;5064268;28;20934;-74
2023/06/07 11:06:06;;;;;;;4.18;3.22;;;;;;;;;;5047562;28;20402;-73
2023/06/07 11:08:33;;;;;;;4.93;3.58;;;;;;;;;;5053477;28;20123;-75
2023/06/07 11:11:00;;;;;;;4.25;3.03;;;;;;;;;;5056180;28;20033;-74
2023/06/07 11:13:45;;;;;;;4.45;3.13;;;;;;;;;;5058457;28;20036;-74
2023/06/07 11:16:23;;;;;;;4.75;3.53;;;;;;;;;;5060116;28;20028;-73
2023/06/07 11:18:56;;;;;;;5.43;3.53;;;;;;;;;;5056621;28;20028;-74
2023/06/07 11:21:26;;;;;;;5.15;3.60;;;;;;;;;;5057738;28;20036;-74
2023/06/07 11:24:11;;;;;;;5.05;3.53;;;;;;;;;;5060141;28;20024;-73
2023/06/07 11:26:37;;;;;;;7.60;3.63;;;;;;;;;;5060796;28;20471;-73
2023/06/07 11:29:05;;;;;;;7.15;3.25;;;;;;;;;;5066170;28;20024;-74
2023/06/07 11:31:31;;;;;;;3.78;3.35;;;;;;;;;;5055509;28;20041;-74
2023/06/07 11:33:57;;;;;;;4.82;3.58;;;;;;;;;;5058125;28;20028;-74
2023/06/07 11:36:23;;;;;;;4.75;3.33;;;;;;;;;;5061638;28;20046;-74
2023/06/07 11:38:51;;;;;;;7.05;4.10;;;;;;;;;;5063979;28;20041;-74
2023/06/07 11:41:18;;;;;;;5.55;4.07;;;;;;;;;;5055044;28;20033;-74
2023/06/07 11:43:46;;;;;;;5.07;3.60;;;;;;;;;;5057950;28;20020;-74
2023/06/07 11:46:14;;;;;;;3.88;3.35;;;;;;;;;;5064383;28;20021;-74
2023/06/07 11:48:40;;;;;;;5.05;3.55;;;;;;;;;;5055381;28;20028;-73
2023/06/07 11:51:06;;;;;;;4.30;3.17;;;;;;;;;;5048841;28;20036;-74
2023/06/07 11:53:32;;;;;;;5.90;3.40;;;;;;;;;;5052504;28;20043;-74
2023/06/07 11:55:59;;;;;;;3.90;3.15;;;;;;;;;;5052867;28;20420;-73
2023/06/07 11:58:25;;;;;;;4.57;4.10;;;;;;;;;;5061111;28;20047;-74
2023/06/07 12:00:52;;;;;;;4.28;3.08;;;;;;;;;;5053371;28;20042;-74
2023/06/07 12:03:21;;;;;;;5.72;3.30;;;;;;;;;;5059881;28;20024;-74
2023/06/07 12:05:47;;;;;;;4.97;3.17;;;;;;;;;;5062968;28;20020;-74
2023/06/07 12:08:16;;;;;;;5.60;3.53;;;;;;;;;;5055224;28;20028;-74
2023/06/07 12:10:42;;;;;;;5.78;3.80;;;;;;;;;;5056682;28;20047;-74
2023/06/07 12:13:11;;;;;;;5.20;3.08;;;;;;;;;;5057598;28;20521;-75
2023/06/07 12:15:51;;;;;;;5.20;3.63;;;;;;;;;;5062822;28;20036;-74
2023/06/07 12:18:18;;;;;;;3.65;3.25;;;;;;;;;;5053065;28;20028;-73
2023/06/07 12:20:45;;;;;;;16.08;4.97;;;;;;;;;;5058280;28;20134;-74
2023/06/07 12:23:12;;;;;;;4.00;3.60;;;;;;;;;;5055622;28;20082;-74
2023/06/07 12:25:39;;;;;;;5.60;3.20;;;;;;;;;;5055412;28;20406;-75
2023/06/07 12:28:06;;;;;;;4.88;3.50;;;;;;;;;;5055052;28;20029;-75
2023/06/07 12:30:37;;;;;;;6.43;4.47;;;;;;;;;;5053066;28;20041;-75
2023/06/07 12:33:03;;;;;;;5.35;3.50;;;;;;;;;;5052399;28;20021;-74
2023/06/07 12:35:39;;;;;;;6.15;3.60;;;;;;;;;;5062400;28;20032;-74
2023/06/07 12:38:08;;;;;;;5.88;3.75;;;;;;;;;;5053660;28;20028;-74
2023/06/07 12:40:34;;;;;;;5.05;3.40;;;;;;;;;;5049951;28;20499;-74
2023/06/07 12:43:01;;;;;;;4.40;3.38;;;;;;;;;;5056152;28;20047;-74
2023/06/07 12:45:27;;;;;;;5.50;3.30;;;;;;;;;;5055450;28;20865;-75
2023/06/07 12:47:54;;;;;;;6.10;3.80;;;;;;;;;;5053770;28;20032;-74
2023/06/07 12:50:20;;;;;;;5.05;3.90;;;;;;;;;;5048641;28;20025;-74
2023/06/07 12:52:46;;;;;;;5.78;3.40;;;;;;;;;;5054550;28;20029;-74
2023/06/07 12:55:13;;;;;;;4.40;3.65;;;;;;;;;;5054061;28;20381;-74
2023/06/07 12:57:39;;;;;;;8.25;3.60;;;;;;;;;;5052324;28;20037;-74
2023/06/07 13:00:05;;;;;;;6.72;3.75;;;;;;;;;;5050169;28;20029;-75
2023/06/07 13:02:31;;;;;;;3.90;3.50;;;;;;;;;;5050175;28;20501;-74
2023/06/07 13:04:57;;;;;;;4.63;3.53;;;;;;;;;;5063207;28;20116;-74
2023/06/07 13:07:24;;;;;;;5.68;3.47;;;;;;;;;;5056676;28;20032;-75
2023/06/07 13:09:51;;;;;;;5.43;3.53;;;;;;;;;;5056621;28;20044;-74
2023/06/07 13:12:17;;;;;;;6.70;3.70;;;;;;;;;;5057919;28;20028;-74
2023/06/07 13:14:43;;;;;;;4.78;3.67;;;;;;;;;;5054147;28;20559;-74
2023/06/07 13:17:10;;;;;;;4.32;3.17;;;;;;;;;;5048635;28;20398;-75
2023/06/07 13:19:37;;;;;;;4.63;3.40;;;;;;;;;;5056354;28;20017;-74
2023/06/07 13:22:03;;;;;;;4.32;3.47;;;;;;;;;;5059107;28;22071;-77
2023/06/07 13:24:32;;;;;;;5.85;3.72;;;;;;;;;;5048609;28;20029;-74
2023/06/07 13:26:58;;;;;;;4.80;3.53;;;;;;;;;;5055573;28;20025;-75
2023/06/07 13:29:25;;;;;;;5.80;3.95;;;;;;;;;;5072346;28;20028;-75
2023/06/07 13:31:51;;;;;;;5.43;3.50;;;;;;;;;;5056596;28;20035;-75
2023/06/07 13:34:17;;;;;;;3.90;3.22;;;;;;;;;;5054622;28;20063;-71
2023/06/07 13:36:43;;;;;;;5.65;3.10;;;;;;;;;;5059558;28;20675;-76
2023/06/07 13:39:10;;;;;;;6.18;3.88;;;;;;;;;;5054629;28;20028;-75
2023/06/07 13:41:39;;;;;;;5.00;3.35;;;;;;;;;;5054704;28;20035;-74
2023/06/07 13:44:06;;;;;;;4.35;3.00;;;;;;;;;;5054266;28;20664;-75
2023/06/07 13:46:32;;;;;;;4.35;3.20;;;;;;;;;;5052132;28;20032;-74
2023/06/07 13:48:58;;;;;;;4.57;3.47;;;;;;;;;;5063414;28;20069;-75
2023/06/07 13:51:25;;;;;;;4.95;3.55;;;;;;;;;;5060886;28;20048;-74
2023/06/07 13:53:51;;;;;;;3.85;3.15;;;;;;;;;;5061643;28;20093;-74
2023/06/07 13:56:18;;;;;;;4.65;2.92;;;;;;;;;;5063943;28;20395;-74
2023/06/07 13:58:45;;;;;;;5.28;3.42;;;;;;;;;;5059618;28;20032;-75
2023/06/07 14:01:13;;;;;;;5.43;3.22;;;;;;;;;;5062621;28;20029;-75
2023/06/07 14:03:40;;;;;;;5.57;3.20;;;;;;;;;;5058571;28;20070;-75
2023/06/07 14:06:07;;;;;;;6.35;3.95;;;;;;;;;;5060404;28;20028;-74
2023/06/07 14:08:33;;;;;;;4.13;3.35;;;;;;;;;;5050011;28;20031;-75
2023/06/07 14:10:59;;;;;;;6.00;3.42;;;;;;;;;;5055553;28;20115;-74
2023/06/07 14:13:26;;;;;;;4.25;3.60;;;;;;;;;;5053760;28;20028;-75
2023/06/07 14:15:52;;;;;;;5.80;3.80;;;;;;;;;;5053577;28;20371;-74
2023/06/07 14:18:18;;;;;;;5.28;3.65;;;;;;;;;;5054966;28;20036;-75
2023/06/07 14:20:44;;;;;;;5.78;3.70;;;;;;;;;;5051775;28;20915;-74
2023/06/07 14:23:10;;;;;;;5.90;3.65;;;;;;;;;;5052505;28;20735;-75
2023/06/07 14:25:36;;;;;;;5.13;4.00;;;;;;;;;;5047601;28;20039;-74
2023/06/07 14:28:02;;;;;;;4.82;3.92;;;;;;;;;;5056879;28;20095;-74
2023/06/07 14:30:28;;;;;;;6.82;4.05;;;;;;;;;;5056310;28;20503;-74
2023/06/07 14:32:55;;;;;;;6.25;3.88;;;;;;;;;;5055423;28;20534;-74
2023/06/07 14:35:21;;;;;;;5.93;3.55;;;;;;;;;;5057385;28;20462;-73
2023/06/07 14:37:47;;;;;;;5.35;3.72;;;;;;;;;;5057817;28;20475;-74